createdAt,value
2022-07-25T00:02:16.311Z,25.90
2022-07-25T00:05:39.276Z,25.90
2022-07-25T00:09:01.855Z,25.90
2022-07-25T00:12:24.659Z,25.90
2022-07-25T00:15:46.951Z,25.90
2022-07-25T00:19:09.274Z,25.90
2022-07-25T00:22:31.868Z,25.90
2022-07-25T00:25:54.158Z,25.90
2022-07-25T00:29:16.387Z,25.90
2022-07-25T00:32:38.835Z,25.80
2022-07-25T00:36:01.139Z,25.80
2022-07-25T00:39:23.575Z,25.80
2022-07-25T00:42:45.833Z,25.80
2022-07-25T00:46:08.109Z,25.80
2022-07-25T00:49:31.165Z,25.80
2022-07-25T00:52:53.450Z,25.80
2022-07-25T00:56:16.903Z,25.80
2022-07-25T00:59:39.177Z,25.70
2022-07-25T01:03:01.531Z,25.80
2022-07-25T01:06:24.788Z,25.80
2022-07-25T01:09:47.442Z,25.80
2022-07-25T01:13:09.750Z,25.80
2022-07-25T01:16:32.096Z,25.80
2022-07-25T01:19:54.344Z,25.70
2022-07-25T01:23:16.732Z,25.80
2022-07-25T01:26:39.259Z,25.80
2022-07-25T01:30:01.481Z,25.70
2022-07-25T01:33:23.812Z,25.70
2022-07-25T01:36:46.026Z,25.70
2022-07-25T01:40:08.920Z,25.70
2022-07-25T01:43:31.235Z,25.70
2022-07-25T01:46:53.490Z,25.70
2022-07-25T01:50:15.739Z,25.70
2022-07-25T01:53:37.977Z,25.70
2022-07-25T01:57:00.539Z,25.70
2022-07-25T02:00:23.333Z,25.70
2022-07-25T02:03:45.539Z,25.70
2022-07-25T02:07:07.786Z,25.70
2022-07-25T02:10:29.981Z,25.70
2022-07-25T02:13:52.494Z,25.70
2022-07-25T02:17:14.915Z,25.70
2022-07-25T02:20:37.214Z,25.70
2022-07-25T02:23:59.459Z,25.60
2022-07-25T02:27:21.665Z,25.60
2022-07-25T02:30:44.043Z,25.60
2022-07-25T02:34:06.516Z,25.50
2022-07-25T02:37:29.124Z,25.50
2022-07-25T02:40:53.023Z,25.50
2022-07-25T02:44:15.284Z,25.50
2022-07-25T02:47:37.723Z,25.50
2022-07-25T02:51:00.083Z,25.50
2022-07-25T02:54:22.253Z,25.40
2022-07-25T02:57:44.531Z,25.50
2022-07-25T03:01:06.952Z,25.50
2022-07-25T03:04:31.080Z,25.50
2022-07-25T03:07:53.502Z,25.50
2022-07-25T03:11:16.821Z,25.50
2022-07-25T03:14:39.109Z,25.60
2022-07-25T03:18:01.332Z,25.70
2022-07-25T03:21:23.526Z,25.70
2022-07-25T03:24:45.806Z,25.70
2022-07-25T03:28:08.092Z,25.70
2022-07-25T03:31:30.388Z,25.70
2022-07-25T03:34:52.658Z,25.70
2022-07-25T03:38:15.114Z,25.70
2022-07-25T03:41:37.288Z,25.70
2022-07-25T03:44:59.508Z,25.70
2022-07-25T03:48:21.715Z,25.70
2022-07-25T03:51:43.976Z,25.70
2022-07-25T03:55:08.369Z,25.60
2022-07-25T03:58:30.640Z,25.60
2022-07-25T04:01:52.911Z,25.70
2022-07-25T04:05:15.428Z,25.70
2022-07-25T04:08:37.704Z,25.70
2022-07-25T04:11:59.945Z,25.70
2022-07-25T04:15:22.185Z,25.70
2022-07-25T04:18:44.398Z,25.70
2022-07-25T04:22:07.365Z,25.70
2022-07-25T04:25:29.941Z,25.70
2022-07-25T04:28:52.205Z,25.70
2022-07-25T04:32:14.796Z,25.70
2022-07-25T04:35:37.306Z,25.70
2022-07-25T04:38:59.571Z,25.70
2022-07-25T04:42:21.779Z,25.70
2022-07-25T04:45:44.118Z,25.70
2022-07-25T04:49:06.527Z,25.70
2022-07-25T04:52:28.843Z,25.70
2022-07-25T04:55:51.078Z,25.70
2022-07-25T04:59:13.467Z,25.70
2022-07-25T05:02:36.406Z,25.70
2022-07-25T05:05:58.690Z,25.70
2022-07-25T05:09:20.975Z,25.70
2022-07-25T05:12:43.191Z,25.70
2022-07-25T05:16:05.984Z,25.70
2022-07-25T05:19:28.369Z,25.70
2022-07-25T05:22:50.757Z,25.70
2022-07-25T05:26:13.019Z,25.70
2022-07-25T05:29:35.210Z,25.70
2022-07-25T05:32:57.443Z,25.70
2022-07-25T05:36:19.968Z,25.70
2022-07-25T05:39:42.278Z,25.70
2022-07-25T05:43:04.658Z,25.70
2022-07-25T05:46:26.896Z,25.70
2022-07-25T05:49:49.116Z,25.70
2022-07-25T05:53:11.362Z,25.60
2022-07-25T05:56:33.630Z,25.70
2022-07-25T05:59:55.835Z,25.60
2022-07-25T06:03:19.186Z,25.70
2022-07-25T06:06:41.495Z,25.60
2022-07-25T06:10:04.715Z,25.70
2022-07-25T06:13:27.530Z,25.60
2022-07-25T06:16:50.500Z,25.70
2022-07-25T06:20:12.984Z,25.60
2022-07-25T06:23:35.363Z,25.70
2022-07-25T06:26:57.623Z,25.70
2022-07-25T06:30:20.723Z,25.60
2022-07-25T06:33:43.246Z,25.70
2022-07-25T06:37:05.582Z,25.70
2022-07-25T06:40:28.212Z,25.70
2022-07-25T06:43:50.497Z,25.70
2022-07-25T06:47:12.933Z,25.70
2022-07-25T06:50:35.317Z,25.70
2022-07-25T06:53:57.800Z,25.70
2022-07-25T06:57:20.000Z,25.70
2022-07-25T07:00:42.258Z,25.60
2022-07-25T07:04:05.528Z,25.70
2022-07-25T07:07:27.985Z,25.70
2022-07-25T07:10:50.249Z,25.70
2022-07-25T07:14:12.539Z,25.80
2022-07-25T07:17:34.754Z,25.80
2022-07-25T07:20:57.105Z,25.60
2022-07-25T07:24:24.156Z,25.60
2022-07-25T07:27:48.063Z,25.50
2022-07-25T07:31:18.027Z,25.50
2022-07-25T07:34:40.833Z,25.60
2022-07-25T07:38:03.054Z,25.50
2022-07-25T07:41:26.143Z,25.60
2022-07-25T07:44:49.838Z,25.50
2022-07-25T07:48:12.107Z,25.40
2022-07-25T07:51:34.563Z,25.40
2022-07-25T07:55:15.470Z,25.40
2022-07-25T07:58:37.702Z,25.40
2022-07-25T08:02:00.139Z,25.30
2022-07-25T08:05:27.933Z,25.40
2022-07-25T08:08:50.174Z,25.30
2022-07-25T08:12:12.371Z,25.40
2022-07-25T08:15:34.686Z,25.30
2022-07-25T08:18:56.893Z,25.30
2022-07-25T08:22:19.089Z,25.20
2022-07-25T08:25:42.138Z,25.00
2022-07-25T08:29:18.760Z,25.00
2022-07-25T08:32:22.093Z,25.00
2022-07-25T08:35:25.378Z,25.00
2022-07-25T08:38:28.331Z,25.00
2022-07-25T08:41:30.525Z,25.00
2022-07-25T08:44:35.505Z,24.90
2022-07-25T08:47:37.770Z,25.00
2022-07-25T08:50:40.559Z,25.20
2022-07-25T08:53:43.408Z,25.30
2022-07-25T08:56:51.170Z,25.30
2022-07-25T09:00:13.697Z,25.30
2022-07-25T09:03:36.436Z,25.30
2022-07-25T09:06:58.822Z,25.30
2022-07-25T09:10:26.666Z,25.20
2022-07-25T09:13:30.645Z,25.20
2022-07-25T09:16:51.426Z,25.30
2022-07-25T09:20:18.320Z,25.30
2022-07-25T09:23:40.768Z,25.10
2022-07-25T09:27:12.779Z,24.50
2022-07-25T09:30:35.555Z,24.40
2022-07-25T09:33:59.467Z,24.20
2022-07-25T09:37:26.975Z,24.30
2022-07-25T09:40:56.342Z,24.30
2022-07-25T09:44:19.865Z,24.40
2022-07-25T09:47:52.787Z,24.40
2022-07-25T09:51:15.154Z,24.30
2022-07-25T09:54:39.168Z,24.20
2022-07-25T09:58:01.475Z,24.20
2022-07-25T10:01:33.513Z,24.30
2022-07-25T10:05:16.925Z,24.40
2022-07-25T10:08:40.498Z,24.40
2022-07-25T10:12:08.056Z,24.20
2022-07-25T10:15:49.481Z,24.20
2022-07-25T10:19:11.782Z,24.20
2022-07-25T10:22:56.250Z,24.20
2022-07-25T10:26:19.671Z,24.10
2022-07-25T10:29:42.664Z,24.40
2022-07-25T10:33:11.914Z,24.70
2022-07-25T10:36:44.949Z,24.90
2022-07-25T10:40:08.021Z,25.00
2022-07-25T10:43:37.762Z,25.00
2022-07-25T10:47:11.740Z,25.10
2022-07-25T10:50:54.337Z,25.20
2022-07-25T10:54:17.713Z,25.20
2022-07-25T10:57:54.955Z,25.30
2022-07-25T11:01:29.610Z,25.40
2022-07-25T11:05:03.173Z,25.50
2022-07-25T11:08:33.136Z,25.50
2022-07-25T11:11:58.605Z,25.50
2022-07-25T11:15:24.717Z,25.50
2022-07-25T11:18:47.244Z,25.60
2022-07-25T11:22:10.204Z,25.60
2022-07-25T11:25:32.562Z,25.70
2022-07-25T11:28:54.762Z,25.70
2022-07-25T11:32:17.818Z,25.70
2022-07-25T11:35:40.248Z,25.70
2022-07-25T11:39:03.636Z,25.70
2022-07-25T11:42:27.572Z,25.70
2022-07-25T11:46:04.380Z,25.60
2022-07-25T11:49:26.952Z,25.60
2022-07-25T11:52:59.773Z,25.60
2022-07-25T11:56:41.798Z,25.60
2022-07-25T12:00:24.456Z,25.60
2022-07-25T12:03:47.142Z,25.60
2022-07-25T12:07:09.501Z,25.60
2022-07-25T12:10:34.555Z,25.60
2022-07-25T12:14:04.565Z,25.60
2022-07-25T12:17:26.846Z,25.70
2022-07-25T12:20:49.052Z,25.70
2022-07-25T12:24:11.328Z,25.70
2022-07-25T12:27:33.571Z,25.80
2022-07-25T12:30:56.909Z,25.70
2022-07-25T12:34:19.226Z,25.70
2022-07-25T12:37:42.232Z,25.70
2022-07-25T12:41:05.233Z,25.80
2022-07-25T12:44:27.458Z,25.80
2022-07-25T12:47:49.719Z,25.90
2022-07-25T12:51:11.898Z,25.90
2022-07-25T12:54:34.894Z,25.90
2022-07-25T12:57:57.211Z,25.90
2022-07-25T13:01:19.523Z,25.90
2022-07-25T13:04:41.958Z,25.90
2022-07-25T13:08:07.372Z,25.90
2022-07-25T13:11:30.102Z,25.90
2022-07-25T13:14:52.433Z,26.00
2022-07-25T13:18:14.682Z,26.00
2022-07-25T13:21:16.845Z,26.10
2022-07-25T13:24:18.901Z,26.20
2022-07-25T13:27:22.312Z,26.10
2022-07-25T13:30:24.273Z,26.20
2022-07-25T13:33:27.608Z,26.20
2022-07-25T13:36:29.807Z,26.30
2022-07-25T13:39:31.971Z,26.20
2022-07-25T13:42:34.077Z,26.20
2022-07-25T13:45:36.424Z,26.20
2022-07-25T13:48:38.750Z,26.30
2022-07-25T13:51:40.935Z,26.30
2022-07-25T13:54:43.031Z,26.20
2022-07-25T13:57:45.334Z,26.20
2022-07-25T14:00:47.430Z,26.20
2022-07-25T14:03:49.617Z,26.20
2022-07-25T14:06:52.336Z,26.20
2022-07-25T14:09:54.571Z,26.20
2022-07-25T14:12:56.692Z,26.30
2022-07-25T14:15:59.477Z,26.20
2022-07-25T14:19:02.253Z,26.20
2022-07-25T14:22:05.163Z,26.20
2022-07-25T14:25:07.644Z,26.20
2022-07-25T14:28:09.735Z,26.20
2022-07-25T14:31:12.265Z,26.20
2022-07-25T14:34:17.126Z,26.20
2022-07-25T14:37:20.646Z,26.30
2022-07-25T14:40:22.800Z,26.30
2022-07-25T14:43:24.923Z,26.20
2022-07-25T14:46:27.117Z,26.20
2022-07-25T14:49:29.453Z,26.20
2022-07-25T14:52:31.883Z,26.20
2022-07-25T14:55:33.935Z,26.10
2022-07-25T14:58:36.261Z,26.10
2022-07-25T15:01:39.784Z,26.00
2022-07-25T15:04:41.808Z,26.00
2022-07-25T15:07:44.875Z,26.00
2022-07-25T15:10:47.122Z,26.00
2022-07-25T15:13:49.990Z,26.10
2022-07-25T15:16:52.189Z,26.00
2022-07-25T15:19:54.423Z,26.00
2022-07-25T15:22:56.603Z,26.00
2022-07-25T15:26:03.763Z,26.10
2022-07-25T15:29:08.272Z,26.00
2022-07-25T15:32:10.907Z,26.10
2022-07-25T15:35:13.188Z,26.00
2022-07-25T15:38:16.132Z,26.10
2022-07-25T15:41:18.098Z,26.00
2022-07-25T15:44:20.203Z,26.00
2022-07-25T15:47:22.381Z,26.00
2022-07-25T15:50:24.611Z,26.00
2022-07-25T15:53:29.166Z,26.00
2022-07-25T15:56:31.376Z,26.00
2022-07-25T15:59:33.513Z,26.00
2022-07-25T16:02:36.246Z,26.00
2022-07-25T16:05:39.634Z,26.00
2022-07-25T16:08:41.542Z,26.00
2022-07-25T16:11:43.768Z,26.00
2022-07-25T16:14:45.865Z,25.90
2022-07-25T16:17:49.586Z,25.60
2022-07-25T16:20:51.828Z,25.50
2022-07-25T16:23:53.765Z,25.40
2022-07-25T16:26:55.886Z,25.40
2022-07-25T16:29:57.983Z,25.30
2022-07-25T16:33:00.326Z,25.30
2022-07-25T16:36:03.662Z,25.30
2022-07-25T16:39:05.893Z,25.30
2022-07-25T16:42:08.183Z,25.30
2022-07-25T16:45:10.933Z,25.30
2022-07-25T16:48:13.052Z,25.20
2022-07-25T16:51:15.012Z,25.30
2022-07-25T16:54:17.310Z,25.20
2022-07-25T16:57:20.055Z,25.20
2022-07-25T17:00:27.220Z,25.30
2022-07-25T17:03:29.227Z,25.40
2022-07-25T17:06:31.803Z,25.30
2022-07-25T17:09:33.806Z,25.30
2022-07-25T17:12:35.766Z,25.40
2022-07-25T17:15:38.390Z,25.40
2022-07-25T17:18:40.526Z,25.40
2022-07-25T17:21:42.610Z,25.40
2022-07-25T17:24:44.735Z,25.50
2022-07-25T17:27:47.006Z,25.50
2022-07-25T17:30:49.431Z,25.50
2022-07-25T17:33:51.550Z,25.60
2022-07-25T17:36:54.330Z,25.50
2022-07-25T17:39:58.366Z,25.60
2022-07-25T17:43:00.576Z,25.60
2022-07-25T17:46:02.851Z,25.70
2022-07-25T17:49:05.158Z,25.70
2022-07-25T17:52:07.422Z,25.60
2022-07-25T17:55:09.992Z,25.60
2022-07-25T17:58:12.338Z,25.50
2022-07-25T18:01:14.592Z,25.50
2022-07-25T18:04:16.655Z,25.40
2022-07-25T18:07:19.497Z,25.50
2022-07-25T18:10:22.744Z,25.60
2022-07-25T18:13:24.810Z,25.60
2022-07-25T18:16:27.047Z,25.60
2022-07-25T18:19:29.209Z,25.60
2022-07-25T18:22:31.298Z,25.60
2022-07-25T18:25:34.022Z,25.60
2022-07-25T18:28:36.254Z,25.70
2022-07-25T18:31:38.446Z,25.60
2022-07-25T18:34:40.611Z,25.60
2022-07-25T18:37:42.718Z,25.50
2022-07-25T18:40:44.885Z,25.40
2022-07-25T18:43:48.155Z,25.30
2022-07-25T18:46:50.785Z,25.20
2022-07-25T18:49:53.749Z,25.00
2022-07-25T18:52:56.539Z,25.00
2022-07-25T18:55:58.781Z,24.90
2022-07-25T18:59:00.675Z,24.90
2022-07-25T19:02:05.511Z,24.80
2022-07-25T19:05:08.611Z,24.70
2022-07-25T19:08:10.918Z,24.60
2022-07-25T19:11:12.976Z,24.90
2022-07-25T19:14:15.299Z,24.90
2022-07-25T19:17:17.467Z,24.90
2022-07-25T19:20:19.643Z,24.90
2022-07-25T19:23:21.682Z,24.90
2022-07-25T19:26:24.094Z,25.00
2022-07-25T19:29:26.809Z,24.90
2022-07-25T19:32:28.811Z,25.00
2022-07-25T19:35:30.830Z,25.10
2022-07-25T19:38:33.208Z,25.20
2022-07-25T19:41:35.418Z,25.30
2022-07-25T19:44:55.919Z,25.30
2022-07-25T19:48:18.197Z,25.40
2022-07-25T19:51:40.551Z,25.40
2022-07-25T19:55:02.769Z,25.40
2022-07-25T19:58:25.235Z,25.40
2022-07-25T20:01:49.266Z,25.40
2022-07-25T20:05:11.587Z,25.50
2022-07-25T20:08:33.800Z,25.50
2022-07-25T20:11:56.711Z,25.40
2022-07-25T20:15:19.084Z,25.40
2022-07-25T20:18:41.320Z,25.30
2022-07-25T20:22:04.737Z,25.30
2022-07-25T20:25:27.326Z,25.30
2022-07-25T20:28:49.534Z,25.20
2022-07-25T20:32:11.840Z,25.20
2022-07-25T20:35:34.431Z,25.20
2022-07-25T20:38:57.016Z,25.30
2022-07-25T20:42:19.463Z,25.30
2022-07-25T20:45:42.307Z,25.20
2022-07-25T20:49:11.039Z,25.20
2022-07-25T20:52:37.334Z,25.20
2022-07-25T20:55:59.654Z,25.30
2022-07-25T20:59:21.857Z,25.30
2022-07-25T21:02:44.168Z,25.30
2022-07-25T21:06:06.637Z,25.30
2022-07-25T21:09:32.607Z,25.20
2022-07-25T21:12:56.655Z,25.20
2022-07-25T21:16:19.816Z,25.10
2022-07-25T21:19:42.115Z,25.00
2022-07-25T21:23:05.170Z,25.10
2022-07-25T21:26:27.450Z,25.10
2022-07-25T21:29:49.743Z,25.10
2022-07-25T21:33:14.723Z,25.10
2022-07-25T21:36:37.334Z,25.10
2022-07-25T21:39:59.809Z,25.10
2022-07-25T21:43:22.134Z,25.10
2022-07-25T21:46:44.355Z,25.00
2022-07-25T21:50:25.949Z,24.90
2022-07-25T21:53:48.531Z,24.90
2022-07-25T21:57:13.802Z,24.90
2022-07-25T22:00:41.730Z,24.90
2022-07-25T22:04:07.946Z,24.80
2022-07-25T22:07:30.277Z,24.80
2022-07-25T22:10:52.824Z,24.80
2022-07-25T22:14:15.709Z,24.80
2022-07-25T22:17:48.554Z,24.80
2022-07-25T22:21:13.882Z,24.80
2022-07-25T22:24:41.845Z,24.80
2022-07-25T22:28:06.741Z,24.80
2022-07-25T22:31:35.607Z,24.80
2022-07-25T22:34:57.864Z,24.80
2022-07-25T22:38:20.624Z,24.80
2022-07-25T22:41:43.727Z,24.90
2022-07-25T22:45:06.506Z,24.90
2022-07-25T22:48:28.809Z,24.90
2022-07-25T22:51:51.396Z,24.90
2022-07-25T22:55:13.686Z,24.80
2022-07-25T22:58:36.018Z,24.80
2022-07-25T23:01:58.280Z,24.80
2022-07-25T23:05:20.491Z,24.70
2022-07-25T23:08:42.747Z,24.70
2022-07-25T23:12:05.510Z,24.70
2022-07-25T23:15:28.636Z,24.70
2022-07-25T23:19:10.360Z,24.60
2022-07-25T23:22:32.951Z,24.60
2022-07-25T23:25:55.155Z,24.60
2022-07-25T23:29:17.350Z,24.60
2022-07-25T23:32:39.715Z,24.60
2022-07-25T23:36:02.305Z,24.60
2022-07-25T23:39:24.613Z,24.50
2022-07-25T23:42:46.814Z,24.40
2022-07-25T23:46:09.713Z,24.40
2022-07-25T23:49:34.137Z,24.30
2022-07-25T23:52:56.421Z,24.30
2022-07-25T23:56:21.101Z,24.40
2022-07-25T23:59:43.517Z,24.40
